createdAt,value
2018-09-01T00:01:13.850Z,65.40
2018-09-01T00:08:58.852Z,65.30
2018-09-01T00:14:08.748Z,65.30
2018-09-01T00:21:53.353Z,65.30
2018-09-01T00:24:28.513Z,65.50
2018-09-01T00:27:03.549Z,65.30
2018-09-01T00:37:28.854Z,65.40
2018-09-01T00:40:03.825Z,65.40
2018-09-01T00:45:13.818Z,65.40
2018-09-01T00:47:48.878Z,65.60
2018-09-01T00:52:59.122Z,65.40
2018-09-01T01:05:53.301Z,65.30
2018-09-01T01:13:37.961Z,65.50
2018-09-01T01:21:22.485Z,65.50
2018-09-01T01:26:32.302Z,65.60
2018-09-01T01:31:42.303Z,65.50
2018-09-01T01:34:17.453Z,65.60
2018-09-01T01:36:52.516Z,65.60
2018-09-01T01:39:27.578Z,65.70
2018-09-01T01:44:37.202Z,65.60
2018-09-01T01:49:47.074Z,65.70
2018-09-01T02:00:07.292Z,65.80
2018-09-01T02:10:28.516Z,65.80
2018-09-01T02:23:23.133Z,66.00
2018-09-01T02:36:18.018Z,65.90
2018-09-01T02:44:02.659Z,66.10
2018-09-01T02:49:12.497Z,65.90
2018-09-01T02:56:57.205Z,66.10
2018-09-01T03:09:51.774Z,66.20
2018-09-01T03:12:26.837Z,66.10
2018-09-01T03:17:36.812Z,66.20
2018-09-01T03:30:31.053Z,66.30
2018-09-01T03:38:15.729Z,66.40
2018-09-01T03:43:25.561Z,66.30
2018-09-01T03:46:00.622Z,66.30
2018-09-01T03:48:35.674Z,66.30
2018-09-01T03:53:45.688Z,66.50
2018-09-01T04:09:14.795Z,66.50
2018-09-01T04:16:59.713Z,66.50
2018-09-01T04:29:54.041Z,66.60
2018-09-01T04:32:29.122Z,66.60
2018-09-01T04:35:04.241Z,66.60
2018-09-01T04:42:49.281Z,66.60
2018-09-01T04:47:59.193Z,66.90
2018-09-01T05:03:29.864Z,67.00
2018-09-01T05:06:04.927Z,67.10
2018-09-01T05:21:33.737Z,67.30
2018-09-01T05:29:18.456Z,67.30
2018-09-01T05:37:03.561Z,67.10
2018-09-01T05:42:13.520Z,67.10
2018-09-01T05:44:48.668Z,67.10
2018-09-01T05:47:23.772Z,67.00
2018-09-01T05:49:58.858Z,67.10
2018-09-01T06:00:20.975Z,66.80
2018-09-01T06:10:40.744Z,66.30
2018-09-01T06:15:50.624Z,66.10
2018-09-01T06:18:25.685Z,66.20
2018-09-01T06:21:01.768Z,66.00
2018-09-01T06:36:36.966Z,66.20
2018-09-01T06:46:56.524Z,66.20
2018-09-01T06:49:31.578Z,66.10
2018-09-01T06:54:41.441Z,65.90
2018-09-01T07:02:26.708Z,65.90
2018-09-01T07:05:01.700Z,65.90
2018-09-01T07:07:36.757Z,66.00
2018-09-01T07:12:46.636Z,65.80
2018-09-01T07:23:06.869Z,65.40
2018-09-01T07:33:27.733Z,65.10
2018-09-01T07:36:02.951Z,64.90
2018-09-01T07:38:38.024Z,64.90
2018-09-01T07:43:47.980Z,64.80
2018-09-01T07:48:57.802Z,65.10
2018-09-01T07:56:42.571Z,65.50
2018-09-01T08:01:52.804Z,64.80
2018-09-01T08:07:02.656Z,64.50
2018-09-01T08:09:37.831Z,64.60
2018-09-01T08:12:12.905Z,64.30
2018-09-01T08:14:47.964Z,64.60
2018-09-01T08:19:57.888Z,64.20
2018-09-01T08:25:07.769Z,64.80
2018-09-01T08:27:42.845Z,64.60
2018-09-01T08:30:17.961Z,64.30
2018-09-01T08:32:53.425Z,64.10
2018-09-01T08:35:28.602Z,64.20
2018-09-01T08:40:38.532Z,64.30
2018-09-01T08:48:23.230Z,63.50
2018-09-01T08:56:07.944Z,63.90
2018-09-01T09:01:17.717Z,63.60
2018-09-01T09:03:52.823Z,63.30
2018-09-01T09:06:27.949Z,63.30
2018-09-01T09:09:03.541Z,63.80
2018-09-01T09:11:38.669Z,63.50
2018-09-01T09:16:48.704Z,63.50
2018-09-01T09:19:23.796Z,63.50
2018-09-01T09:21:58.849Z,63.30
2018-09-01T09:24:33.889Z,63.10
2018-09-01T09:27:08.948Z,62.90
2018-09-01T09:29:44.028Z,62.80
2018-09-01T09:34:53.940Z,62.90
2018-09-01T09:40:03.867Z,63.10
2018-09-01T09:45:13.838Z,63.20
2018-09-01T09:50:23.834Z,63.20
2018-09-01T09:52:58.931Z,63.20
2018-09-01T09:55:34.348Z,63.00
2018-09-01T10:00:50.095Z,62.60
2018-09-01T10:03:25.481Z,62.60
2018-09-01T10:08:35.325Z,62.60
2018-09-01T10:13:45.421Z,62.70
2018-09-01T10:21:30.160Z,62.50
2018-09-01T10:26:40.732Z,62.50
2018-09-01T10:31:50.619Z,62.40
2018-09-01T10:37:00.962Z,62.40
2018-09-01T10:42:10.944Z,62.10
2018-09-01T10:44:45.980Z,62.30
2018-09-01T10:49:55.710Z,62.10
2018-09-01T10:57:40.801Z,62.20
2018-09-01T11:05:28.536Z,62.20
2018-09-01T11:10:39.186Z,62.10
2018-09-01T11:15:49.246Z,62.20
2018-09-01T11:20:59.410Z,62.10
2018-09-01T11:26:09.249Z,62.10
2018-09-01T11:33:54.966Z,62.10
2018-09-01T11:36:30.006Z,62.10
2018-09-01T11:44:16.292Z,62.00
2018-09-01T11:49:26.590Z,62.00
2018-09-01T11:54:36.997Z,62.00
2018-09-01T12:02:21.647Z,62.10
2018-09-01T12:07:31.489Z,62.10
2018-09-01T12:10:07.129Z,62.10
2018-09-01T12:12:42.209Z,62.10
2018-09-01T12:17:51.958Z,62.10
2018-09-01T12:20:27.055Z,62.10
2018-09-01T12:25:37.207Z,62.10
2018-09-01T12:30:47.102Z,62.10
2018-09-01T12:35:57.025Z,62.00
2018-09-01T12:38:32.123Z,62.10
2018-09-01T13:01:46.928Z,62.20
2018-09-01T13:06:57.110Z,62.30
2018-09-01T13:14:42.178Z,62.20
2018-09-01T13:19:52.079Z,62.20
2018-09-01T13:25:01.935Z,62.30
2018-09-01T13:27:37.035Z,62.30
2018-09-01T13:30:12.128Z,62.20
2018-09-01T13:32:47.246Z,62.30
2018-09-01T13:40:32.703Z,62.40
2018-09-01T13:48:17.368Z,62.30
2018-09-01T13:53:27.091Z,62.20
2018-09-01T13:56:02.153Z,62.30
2018-09-01T13:58:37.287Z,62.30
2018-09-01T14:14:06.594Z,62.40
2018-09-01T14:19:16.515Z,62.50
2018-09-01T14:27:01.185Z,62.60
2018-09-01T14:34:46.056Z,62.60
2018-09-01T14:39:56.203Z,62.60
2018-09-01T14:45:06.017Z,62.60
2018-09-01T14:55:25.788Z,62.50
2018-09-01T14:58:00.830Z,62.60
2018-09-01T15:05:45.428Z,62.60
2018-09-01T15:10:55.273Z,62.50
2018-09-01T15:13:30.360Z,62.50
2018-09-01T15:23:49.923Z,62.50
2018-09-01T15:26:24.975Z,62.50
2018-09-01T15:29:00.109Z,62.50
2018-09-01T15:31:35.176Z,62.50
2018-09-01T15:34:10.272Z,62.50
2018-09-01T15:36:45.366Z,62.50
2018-09-01T15:39:20.436Z,62.50
2018-09-01T15:41:55.524Z,62.60
2018-09-01T15:47:05.355Z,62.60
2018-09-01T15:52:15.602Z,62.50
2018-09-01T15:57:25.469Z,62.50
2018-09-01T16:07:45.096Z,62.50
2018-09-01T16:12:55.034Z,62.50
2018-09-01T16:18:04.879Z,62.50
2018-09-01T16:25:49.569Z,62.60
2018-09-01T16:30:59.593Z,62.60
2018-09-01T16:33:34.866Z,62.50
2018-09-01T16:36:10.308Z,62.70
2018-09-01T16:41:20.212Z,62.60
2018-09-01T16:49:05.280Z,62.70
2018-09-01T16:54:14.981Z,62.80
2018-09-01T16:59:25.233Z,62.80
2018-09-01T17:04:35.738Z,62.80
2018-09-01T17:09:45.611Z,62.70
2018-09-01T17:12:20.657Z,62.90
2018-09-01T17:17:30.488Z,62.80
2018-09-01T17:22:40.697Z,62.90
2018-09-01T17:25:16.794Z,62.80
2018-09-01T17:33:01.793Z,62.90
2018-09-01T17:35:36.955Z,62.80
2018-09-01T17:38:12.033Z,62.90
2018-09-01T17:40:47.172Z,62.90
2018-09-01T17:43:22.256Z,62.90
2018-09-01T17:58:51.630Z,63.10
2018-09-01T18:01:27.689Z,63.10
2018-09-01T18:04:03.221Z,63.20
2018-09-01T18:11:47.934Z,63.20
2018-09-01T18:16:57.817Z,63.20
2018-09-01T18:19:33.035Z,63.30
2018-09-01T18:22:08.383Z,63.20
2018-09-01T18:24:43.389Z,63.30
2018-09-01T18:27:18.598Z,63.40
2018-09-01T18:32:29.332Z,63.50
2018-09-01T18:35:04.784Z,63.50
2018-09-01T18:40:14.636Z,63.40
2018-09-01T18:45:25.162Z,63.60
2018-09-01T18:50:35.117Z,63.70
2018-09-01T18:53:10.206Z,63.80
2018-09-01T18:55:45.275Z,63.60
2018-09-01T18:58:20.350Z,63.60
2018-09-01T19:03:31.161Z,63.80
2018-09-01T19:06:06.212Z,63.70
2018-09-01T19:11:16.131Z,63.80
2018-09-01T19:13:51.625Z,63.90
2018-09-01T19:16:26.685Z,63.80
2018-09-01T19:21:36.551Z,63.80
2018-09-01T19:26:46.432Z,63.80
2018-09-01T19:29:21.557Z,63.70
2018-09-01T19:31:56.640Z,63.80
2018-09-01T19:39:41.299Z,63.80
2018-09-01T19:47:25.950Z,63.70
2018-09-01T19:52:36.158Z,63.80
2018-09-01T19:57:46.278Z,63.80
2018-09-01T20:05:30.847Z,63.90
2018-09-01T20:13:15.402Z,64.10
2018-09-01T20:21:00.221Z,64.20
2018-09-01T20:26:10.106Z,64.20
2018-09-01T20:33:54.712Z,64.10
2018-09-01T20:39:06.436Z,64.20
2018-09-01T20:41:41.564Z,64.30
2018-09-01T20:46:51.960Z,64.30
2018-09-01T20:49:27.027Z,64.30
2018-09-01T20:52:02.119Z,64.40
2018-09-01T20:57:11.994Z,64.40
2018-09-01T21:02:21.865Z,64.30
2018-09-01T21:10:06.699Z,64.40
2018-09-01T21:15:16.952Z,64.50
2018-09-01T21:20:26.852Z,64.40
2018-09-01T21:23:01.929Z,64.40
2018-09-01T21:25:37.045Z,64.40
2018-09-01T21:28:12.076Z,64.60
2018-09-01T21:30:47.133Z,64.40
2018-09-01T21:33:22.308Z,64.40
2018-09-01T21:38:32.137Z,64.40
2018-09-01T21:48:52.184Z,64.50
2018-09-01T21:54:02.363Z,64.50
2018-09-01T21:59:12.652Z,64.50
2018-09-01T22:04:32.073Z,64.60
2018-09-01T22:07:07.271Z,64.60
2018-09-01T22:09:42.366Z,64.60
2018-09-01T22:12:17.868Z,64.50
2018-09-01T22:17:28.749Z,64.60
2018-09-01T22:27:48.252Z,64.70
2018-09-01T22:30:23.319Z,64.70
2018-09-01T22:32:58.365Z,64.80
2018-09-01T22:35:33.505Z,64.70
2018-09-01T22:38:08.558Z,64.60
2018-09-01T22:40:43.702Z,64.60
2018-09-01T22:43:18.787Z,64.70
2018-09-01T22:45:53.843Z,64.70
2018-09-01T22:48:28.961Z,64.70
2018-09-01T22:51:04.092Z,64.60
2018-09-01T22:56:13.904Z,64.60
2018-09-01T23:01:23.762Z,64.60
2018-09-01T23:14:18.678Z,64.60
2018-09-01T23:22:03.280Z,64.70
2018-09-01T23:27:13.527Z,64.70
2018-09-01T23:34:59.988Z,64.70
2018-09-01T23:40:09.897Z,64.70
2018-09-01T23:42:44.944Z,64.80
2018-09-01T23:47:54.936Z,64.90
2018-09-01T23:53:04.970Z,64.90
2018-09-01T23:58:15.196Z,64.90
